Time;durP1;ratioP1;P1;durP2;ratioP2;P2;SDS_P1;SDS_P2;PMS_P1;PMS_P2;Temp;Humidity;BMP_temperature;BMP_pressure;BME280_temperature;BME280_humidity;BME280_pressure;Samples;Min_cycle;Max_cycle;Signal;HPM_P1;HPM_P2
2022/09/17 00:00:00;;;;;;;8.13;1.63;;;;;;;9.46;100.00;100452.19;681014;28;2399;-64
2022/09/17 00:00:21;;;;;;;6.95;1.60;;;;;;;9.48;100.00;100458.25;678265;28;1262;-62
2022/09/17 00:00:42;;;;;;;5.50;1.33;;;;;;;9.52;100.00;100454.75;681990;28;1131;-63
2022/09/17 00:01:03;;;;;;;6.93;1.47;;;;;;;9.49;100.00;100455.63;680756;28;4272;-64
2022/09/17 00:01:25;;;;;;;7.68;1.65;;;;;;;9.45;100.00;100458.28;682014;28;3743;-65
2022/09/17 00:01:46;;;;;;;6.88;1.80;;;;;;;9.52;100.00;100449.53;682356;28;1171;-63
2022/09/17 00:02:06;;;;;;;6.18;1.65;;;;;;;9.56;100.00;100446.03;681947;28;1306;-63
2022/09/17 00:02:29;;;;;;;8.07;1.70;;;;;;;9.52;100.00;100449.53;684096;28;1308;-64
2022/09/17 00:02:54;;;;;;;6.22;1.58;;;;;;;9.54;100.00;100453.03;683491;28;1148;-64
2022/09/17 00:03:15;;;;;;;6.00;1.48;;;;;;;9.54;100.00;100451.28;684434;28;1922;-63
2022/09/17 00:03:35;;;;;;;4.80;1.45;;;;;;;9.63;100.00;100449.50;684763;28;1084;-62
2022/09/17 00:04:00;;;;;;;5.30;1.40;;;;;;;9.64;100.00;100444.28;680999;28;4511;-63
2022/09/17 00:04:21;;;;;;;7.97;1.95;;;;;;;9.60;100.00;100454.75;681671;28;1035;-62
2022/09/17 00:04:41;;;;;;;6.73;1.70;;;;;;;9.58;100.00;100448.66;681255;28;1570;-65
2022/09/17 00:05:02;;;;;;;5.80;1.67;;;;;;;9.64;100.00;100454.72;682267;28;1151;-62
2022/09/17 00:05:25;;;;;;;5.50;1.60;;;;;;;9.61;100.00;100452.13;680926;28;2343;-62
2022/09/17 00:05:45;;;;;;;5.53;1.53;;;;;;;9.60;100.00;100449.53;681521;28;1144;-63
2022/09/17 00:06:08;;;;;;;4.97;1.55;;;;;;;9.60;100.00;100441.69;681739;28;1187;-62
2022/09/17 00:06:30;;;;;;;6.88;1.52;;;;;;;9.58;100.00;100448.66;682332;28;1138;-63
2022/09/17 00:06:51;;;;;;;6.50;1.73;;;;;;;9.52;100.00;100450.41;682017;28;4583;-63
2022/09/17 00:07:11;;;;;;;5.32;1.92;;;;;;;9.47;100.00;100451.28;682532;28;1250;-63
2022/09/17 00:07:32;;;;;;;6.33;1.70;;;;;;;9.47;100.00;100446.97;681122;28;1243;-63
2022/09/17 00:07:52;;;;;;;6.37;1.60;;;;;;;9.47;100.00;100454.78;681613;28;1242;-64
2022/09/17 00:08:13;;;;;;;6.13;1.80;;;;;;;9.43;100.00;100445.22;681125;28;1171;-63
2022/09/17 00:08:36;;;;;;;5.32;1.90;;;;;;;9.40;100.00;100447.88;681835;28;1588;-61
2022/09/17 00:08:57;;;;;;;5.70;1.60;;;;;;;9.41;100.00;100446.97;682450;28;1202;-63
2022/09/17 00:09:17;;;;;;;6.95;1.60;;;;;;;9.40;100.00;100453.09;679196;28;1349;-63
2022/09/17 00:09:38;;;;;;;6.50;1.70;;;;;;;9.40;100.00;100449.59;679604;28;1109;-63
2022/09/17 00:09:59;;;;;;;5.55;1.70;;;;;;;9.38;100.00;100452.19;677613;28;4586;-63
2022/09/17 00:10:20;;;;;;;6.82;1.75;;;;;;;9.37;100.00;100453.97;678146;28;1112;-63
2022/09/17 00:10:43;;;;;;;6.15;1.63;;;;;;;9.38;100.00;100452.19;680183;29;1117;-63
2022/09/17 00:11:09;;;;;;;6.85;1.80;;;;;;;9.38;100.00;100447.84;679525;28;1248;-62
2022/09/17 00:11:33;;;;;;;5.22;1.52;;;;;;;9.41;100.00;100456.53;681839;28;1220;-64
2022/09/17 00:11:54;;;;;;;5.75;1.80;;;;;;;9.41;100.00;100454.78;682471;28;1567;-62
2022/09/17 00:12:14;;;;;;;4.73;1.63;;;;;;;9.41;100.00;100446.97;681928;28;1210;-63
2022/09/17 00:12:35;;;;;;;6.32;1.60;;;;;;;9.48;100.00;100453.88;681541;28;1189;-63
2022/09/17 00:12:55;;;;;;;4.93;1.50;;;;;;;9.61;100.00;100448.63;681294;28;4649;-64
2022/09/17 00:13:15;;;;;;;5.68;1.58;;;;;;;9.70;100.00;100454.66;681986;28;1104;-64
2022/09/17 00:13:36;;;;;;;6.70;1.73;;;;;;;9.67;100.00;100453.84;683678;28;1270;-63
2022/09/17 00:13:59;;;;;;;5.63;1.60;;;;;;;9.58;100.00;100456.47;679905;28;1160;-64
2022/09/17 00:14:19;;;;;;;6.78;1.58;;;;;;;9.53;100.00;100452.13;680315;28;1118;-63
2022/09/17 00:14:40;;;;;;;4.67;1.40;;;;;;;9.49;100.00;100447.81;682031;28;2816;-63
2022/09/17 00:15:00;;;;;;;6.00;1.55;;;;;;;9.68;100.00;100450.34;681688;28;1224;-62
2022/09/17 00:15:21;;;;;;;6.47;1.70;;;;;;;9.79;100.00;100450.28;681800;28;1207;-63
2022/09/17 00:15:44;;;;;;;5.55;1.60;;;;;;;9.75;100.00;100451.16;682771;28;1259;-64
2022/09/17 00:16:05;;;;;;;6.60;1.85;;;;;;;9.67;100.00;100446.88;682489;28;5088;-62
2022/09/17 00:16:32;;;;;;;6.45;1.77;;;;;;;9.68;100.00;100447.75;681334;28;1020;-63
2022/09/17 00:16:53;;;;;;;6.55;1.55;;;;;;;9.69;100.00;100446.84;683018;28;1369;-62
2022/09/17 00:17:14;;;;;;;7.25;1.70;;;;;;;9.67;100.00;100453.84;682532;28;2224;-64
2022/09/17 00:17:34;;;;;;;6.05;1.73;;;;;;;9.77;100.00;100450.28;682960;28;1175;-62
2022/09/17 00:17:56;;;;;;;5.80;1.73;;;;;;;9.77;100.00;100445.06;682101;28;1148;-64
2022/09/17 00:18:17;;;;;;;6.55;1.70;;;;;;;9.78;100.00;100453.78;681020;28;1221;-63
2022/09/17 00:18:40;;;;;;;7.38;1.70;;;;;;;9.76;100.00;100451.19;677183;28;4111;-63
2022/09/17 00:19:02;;;;;;;7.47;1.60;;;;;;;9.75;100.00;100451.16;677432;28;4494;-62
2022/09/17 00:19:23;;;;;;;7.10;1.80;;;;;;;9.70;100.00;100448.59;682165;28;1214;-63
2022/09/17 00:19:43;;;;;;;5.65;1.73;;;;;;;9.65;100.00;100455.56;681423;28;2055;-64
2022/09/17 00:20:09;;;;;;;4.45;1.40;;;;;;;9.60;100.00;100452.13;676564;29;2576;-63
2022/09/17 00:20:29;;;;;;;4.88;1.58;;;;;;;9.60;100.00;100450.38;677688;28;1401;-64
2022/09/17 00:20:49;;;;;;;5.28;1.60;;;;;;;9.53;100.00;100449.53;678607;28;1573;-63
2022/09/17 00:21:17;;;;;;;8.23;1.80;;;;;;;9.43;100.00;100447.84;679934;28;1299;-64
2022/09/17 00:21:39;;;;;;;7.47;1.50;;;;;;;9.39;100.00;100448.72;679434;28;1177;-63
2022/09/17 00:21:59;;;;;;;5.88;1.45;;;;;;;9.38;100.00;100445.22;680636;28;5140;-64
2022/09/17 00:22:20;;;;;;;6.40;1.70;;;;;;;9.44;100.00;100446.09;681686;28;1182;-64
2022/09/17 00:22:40;;;;;;;5.63;1.60;;;;;;;9.49;100.00;100446.94;680789;28;2372;-62
2022/09/17 00:23:00;;;;;;;6.57;1.60;;;;;;;9.47;100.00;100446.97;679495;28;1922;-62
2022/09/17 00:23:21;;;;;;;5.87;1.67;;;;;;;9.46;100.00;100440.00;678633;28;1307;-62
2022/09/17 00:23:41;;;;;;;5.78;1.50;;;;;;;9.47;100.00;100448.69;680005;28;1287;-64
2022/09/17 00:24:04;;;;;;;7.53;1.70;;;;;;;9.41;100.00;100446.97;678055;29;1489;-63
2022/09/17 00:24:25;;;;;;;6.50;1.95;;;;;;;9.40;100.00;100453.09;678370;28;1077;-63
2022/09/17 00:24:45;;;;;;;7.47;1.80;;;;;;;9.41;100.00;100451.31;680780;28;4580;-64
2022/09/17 00:25:07;;;;;;;9.02;2.10;;;;;;;9.39;100.00;100448.72;682196;28;2302;-63
2022/09/17 00:25:28;;;;;;;7.78;1.70;;;;;;;9.38;100.00;100457.41;682377;28;1149;-64
2022/09/17 00:25:48;;;;;;;6.53;1.80;;;;;;;9.38;100.00;100453.06;682980;28;1254;-63
2022/09/17 00:26:08;;;;;;;6.60;1.90;;;;;;;9.53;100.00;100454.75;681761;28;1326;-63
2022/09/17 00:26:30;;;;;;;6.85;2.05;;;;;;;9.62;100.00;100445.16;682575;28;1442;-62
2022/09/17 00:26:50;;;;;;;6.47;1.95;;;;;;;9.65;100.00;100455.56;681521;28;1325;-62
2022/09/17 00:27:11;;;;;;;6.28;1.70;;;;;;;9.61;100.00;100449.50;679787;28;1141;-62
2022/09/17 00:27:31;;;;;;;5.90;1.60;;;;;;;9.61;100.00;100448.63;674840;29;1327;-64
2022/09/17 00:27:52;;;;;;;5.28;1.67;;;;;;;9.71;100.00;100450.34;673780;29;4605;-62
2022/09/17 00:28:13;;;;;;;5.73;1.70;;;;;;;9.79;100.00;100448.56;670685;29;1320;-63
2022/09/17 00:28:34;;;;;;;7.20;1.83;;;;;;;9.80;100.00;100450.31;674617;29;1244;-64
2022/09/17 00:28:55;;;;;;;6.23;1.80;;;;;;;9.80;100.00;100446.81;674441;29;1530;-62
2022/09/17 00:29:16;;;;;;;5.50;1.60;;;;;;;9.80;100.00;100454.63;676361;29;1256;-65
2022/09/17 00:29:36;;;;;;;5.13;1.55;;;;;;;9.73;100.00;100451.19;676265;29;2466;-62
2022/09/17 00:29:57;;;;;;;7.97;1.83;;;;;;;9.68;100.00;100456.44;677311;28;1199;-63
2022/09/17 00:30:18;;;;;;;8.27;1.83;;;;;;;9.62;100.00;100442.53;676233;29;1110;-62
2022/09/17 00:30:43;;;;;;;5.25;1.67;;;;;;;9.58;100.00;100449.53;677355;29;1346;-63
2022/09/17 00:31:07;;;;;;;6.63;1.90;;;;;;;9.53;100.00;100452.13;677123;29;4342;-67
2022/09/17 00:31:29;;;;;;;6.43;2.00;;;;;;;9.48;100.00;100446.06;680998;28;1132;-62
2022/09/17 00:31:49;;;;;;;6.60;2.00;;;;;;;9.47;100.00;100441.75;683094;28;1171;-63
2022/09/17 00:32:12;;;;;;;8.67;1.90;;;;;;;9.52;100.00;100446.94;681891;28;2441;-63
2022/09/17 00:32:33;;;;;;;6.43;1.80;;;;;;;9.50;100.00;100444.34;681814;28;1457;-62
2022/09/17 00:32:55;;;;;;;8.03;2.00;;;;;;;9.46;100.00;100446.97;683504;28;1447;-63
2022/09/17 00:33:17;;;;;;;6.95;2.00;;;;;;;9.43;100.00;100437.41;681275;28;1147;-63
2022/09/17 00:33:40;;;;;;;6.78;2.00;;;;;;;9.44;100.00;100444.38;679415;29;1171;-64
2022/09/17 00:34:02;;;;;;;5.57;1.70;;;;;;;9.52;100.00;100441.72;679446;28;4299;-62
2022/09/17 00:34:23;;;;;;;6.63;1.90;;;;;;;9.49;100.00;100445.19;680505;28;1089;-63
2022/09/17 00:34:48;;;;;;;6.35;1.80;;;;;;;9.48;100.00;100447.81;679697;29;1155;-62
2022/09/17 00:35:08;;;;;;;5.88;1.95;;;;;;;9.48;100.00;100446.06;679259;28;4806;-63
2022/09/17 00:35:28;;;;;;;5.95;1.60;;;;;;;9.47;100.00;100444.34;680922;28;1176;-63
2022/09/17 00:35:59;;;;;;;5.77;1.80;;;;;;;9.46;100.00;100441.75;681911;28;1197;-62
2022/09/17 00:36:20;;;;;;;7.00;2.38;;;;;;;9.48;100.00;100453.03;682054;28;1482;-64
2022/09/17 00:36:41;;;;;;;6.60;1.92;;;;;;;9.47;100.00;100449.56;683040;28;1227;-63
2022/09/17 00:37:01;;;;;;;5.95;1.98;;;;;;;9.46;100.00;100447.81;680430;28;4335;-64
2022/09/17 00:37:22;;;;;;;6.43;2.03;;;;;;;9.43;100.00;100444.34;681663;28;1467;-63
2022/09/17 00:37:42;;;;;;;8.38;2.10;;;;;;;9.40;100.00;100455.69;681955;28;1214;-64
2022/09/17 00:38:03;;;;;;;7.53;2.17;;;;;;;9.39;100.00;100448.72;682594;28;1120;-63
2022/09/17 00:38:23;;;;;;;7.93;2.00;;;;;;;9.36;100.00;100449.59;682593;28;1111;-63
2022/09/17 00:38:46;;;;;;;7.70;2.10;;;;;;;9.32;100.00;100453.09;682756;28;1072;-64
2022/09/17 00:39:09;;;;;;;7.95;2.70;;;;;;;9.39;100.00;100453.94;682789;28;1093;-63
2022/09/17 00:39:29;;;;;;;8.30;2.30;;;;;;;9.40;100.00;100449.59;681850;28;2400;-63
2022/09/17 00:39:50;;;;;;;6.72;2.08;;;;;;;9.40;100.00;100454.81;682294;28;4465;-64
2022/09/17 00:40:10;;;;;;;7.27;2.07;;;;;;;9.47;100.00;100453.91;684076;28;1383;-64
2022/09/17 00:40:31;;;;;;;6.40;2.10;;;;;;;9.50;100.00;100452.16;682711;28;1433;-62
2022/09/17 00:40:51;;;;;;;7.03;2.17;;;;;;;9.50;100.00;100452.16;683294;28;1215;-63
2022/09/17 00:41:11;;;;;;;8.80;2.20;;;;;;;9.48;100.00;100453.88;682955;28;1263;-63
2022/09/17 00:41:34;;;;;;;7.13;2.10;;;;;;;9.47;100.00;100456.50;683811;28;1433;-63
2022/09/17 00:41:54;;;;;;;5.75;1.92;;;;;;;9.50;100.00;100453.91;683597;28;1145;-62
2022/09/17 00:42:16;;;;;;;6.97;2.00;;;;;;;9.67;100.00;100448.63;681944;28;1284;-62
2022/09/17 00:42:37;;;;;;;6.85;2.30;;;;;;;9.79;100.00;100453.78;681631;28;2334;-62
2022/09/17 00:42:57;;;;;;;5.75;2.10;;;;;;;9.78;100.00;100456.41;681703;28;4496;-63
2022/09/17 00:43:37;;;;;;;5.67;1.97;;;;;;;9.71;100.00;100460.78;679121;28;1977;-63
2022/09/17 00:44:35;;;;;;;6.93;2.10;;;;;;;9.72;100.00;100452.09;676113;29;1524;-66
2022/09/17 00:44:56;;;;;;;5.68;2.10;;;;;;;9.75;100.00;100452.06;678074;29;1124;-62
2022/09/17 00:45:16;;;;;;;8.70;2.00;;;;;;;9.73;100.00;100451.19;682336;28;2496;-62
2022/09/17 00:45:43;;;;;;;8.25;2.15;;;;;;;9.83;100.00;100459.84;682526;28;1116;-63
2022/09/17 00:46:13;;;;;;;6.32;2.10;;;;;;;9.78;100.00;100457.25;681177;28;4381;-62
2022/09/17 00:46:40;;;;;;;7.72;2.40;;;;;;;9.66;100.00;100454.72;682959;28;1183;-62
2022/09/17 00:47:01;;;;;;;7.35;2.20;;;;;;;9.65;100.00;100459.06;680290;28;1232;-64
2022/09/17 00:47:24;;;;;;;8.13;2.30;;;;;;;9.63;100.00;100462.56;678940;28;1273;-64
2022/09/17 00:47:50;;;;;;;6.78;2.30;;;;;;;9.57;100.00;100458.22;680379;28;1163;-63
2022/09/17 00:48:11;;;;;;;7.53;2.38;;;;;;;9.52;100.00;100455.63;679561;28;2824;-62
2022/09/17 00:48:32;;;;;;;8.68;2.30;;;;;;;9.45;100.00;100451.31;680269;28;1498;-64
2022/09/17 00:48:58;;;;;;;8.03;2.33;;;;;;;9.44;100.00;100460.03;682469;28;4368;-64
2022/09/17 00:49:29;;;;;;;7.18;2.30;;;;;;;9.40;100.00;100454.81;684591;28;1128;-63
2022/09/17 00:49:58;;;;;;;8.07;2.50;;;;;;;9.36;100.00;100456.56;684795;28;1171;-63
2022/09/17 00:50:39;;;;;;;7.03;2.20;;;;;;;9.37;100.00;100456.56;682086;28;1688;-63
2022/09/17 00:51:00;;;;;;;7.82;2.35;;;;;;;9.34;100.00;100453.94;681905;28;1131;-63
2022/09/17 00:51:27;;;;;;;7.30;2.30;;;;;;;9.37;100.00;100456.56;683192;28;1045;-63
2022/09/17 00:52:11;;;;;;;7.47;2.63;;;;;;;9.61;100.00;100459.06;682035;28;4360;-63
2022/09/17 00:52:56;;;;;;;6.45;2.20;;;;;;;9.53;100.00;100457.38;682839;28;1480;-62
2022/09/17 00:53:19;;;;;;;8.98;2.50;;;;;;;9.47;100.00;100457.41;682265;28;1139;-64
2022/09/17 00:53:41;;;;;;;7.07;2.40;;;;;;;9.42;100.00;100453.06;682318;28;1100;-63
2022/09/17 00:54:08;;;;;;;7.70;2.88;;;;;;;9.42;100.00;100448.72;682069;28;1306;-62
2022/09/17 00:54:29;;;;;;;7.43;2.70;;;;;;;9.46;100.00;100453.03;681595;28;2309;-64
2022/09/17 00:54:59;;;;;;;7.88;2.67;;;;;;;9.52;100.00;100455.63;681510;28;4304;-63
2022/09/17 00:55:33;;;;;;;6.85;2.50;;;;;;;9.51;100.00;100451.28;682595;28;1041;-62
2022/09/17 00:56:01;;;;;;;7.18;2.40;;;;;;;9.55;100.00;100452.13;682025;28;1402;-64
2022/09/17 00:56:24;;;;;;;7.75;2.55;;;;;;;9.51;100.00;100455.63;681868;28;1020;-64
2022/09/17 00:56:45;;;;;;;8.57;2.53;;;;;;;9.52;100.00;100457.38;683723;28;1140;-63
2022/09/17 00:57:06;;;;;;;7.57;2.75;;;;;;;9.56;100.00;100450.41;683017;28;1167;-63
2022/09/17 00:57:27;;;;;;;7.25;2.60;;;;;;;9.61;100.00;100448.63;683127;28;2851;-63
2022/09/17 00:57:54;;;;;;;8.18;2.78;;;;;;;9.60;100.00;100452.13;681859;28;4358;-64
2022/09/17 00:58:19;;;;;;;6.95;2.60;;;;;;;9.60;100.00;100454.75;681189;28;1088;-64
2022/09/17 00:58:40;;;;;;;8.20;2.70;;;;;;;9.59;100.00;100455.59;683561;28;1282;-64
2022/09/17 00:59:02;;;;;;;8.67;2.60;;;;;;;9.61;100.00;100453.84;684634;28;1080;-63
2022/09/17 00:59:23;;;;;;;8.35;2.60;;;;;;;9.59;100.00;100458.22;682168;28;1405;-64
2022/09/17 00:59:43;;;;;;;8.73;2.40;;;;;;;9.52;100.00;100455.63;683796;28;1207;-63
2022/09/17 01:00:07;;;;;;;7.70;2.50;;;;;;;9.51;100.00;100448.69;683238;28;2924;-63
2022/09/17 01:00:29;;;;;;;5.88;2.28;;;;;;;9.52;100.00;100454.75;683818;28;1187;-63
2022/09/17 01:00:50;;;;;;;7.40;2.45;;;;;;;9.65;100.00;100455.56;683464;28;4481;-63
2022/09/17 01:01:10;;;;;;;8.00;2.83;;;;;;;9.67;100.00;100459.06;684483;28;1628;-64
2022/09/17 01:01:31;;;;;;;8.53;2.70;;;;;;;9.62;100.00;100459.09;684107;28;1279;-64
2022/09/17 01:01:52;;;;;;;8.15;2.53;;;;;;;9.54;100.00;100459.09;683384;28;1674;-62
2022/09/17 01:02:12;;;;;;;8.07;2.73;;;;;;;9.50;100.00;100457.38;684351;28;1480;-64
2022/09/17 01:02:33;;;;;;;8.55;2.42;;;;;;;9.60;100.00;100458.22;679426;28;2467;-63
2022/09/17 01:02:54;;;;;;;6.97;2.60;;;;;;;9.64;100.00;100454.72;679592;28;1434;-63
2022/09/17 01:03:14;;;;;;;6.55;2.55;;;;;;;9.77;100.00;100452.91;682632;28;1950;-64
2022/09/17 01:03:35;;;;;;;6.73;2.40;;;;;;;9.76;100.00;100458.13;679854;29;2033;-62
2022/09/17 01:03:55;;;;;;;6.88;2.40;;;;;;;9.73;100.00;100459.00;678640;28;4308;-64
2022/09/17 01:04:17;;;;;;;7.43;2.50;;;;;;;9.71;100.00;100461.63;679295;28;1076;-63
2022/09/17 01:04:38;;;;;;;7.78;2.80;;;;;;;9.61;100.00;100459.94;678179;29;1295;-63
2022/09/17 01:04:58;;;;;;;7.28;2.90;;;;;;;9.54;100.00;100460.84;679291;29;1181;-63
2022/09/17 01:05:41;;;;;;;8.20;2.90;;;;;;;9.48;100.00;100460.88;679637;28;2345;-62
2022/09/17 01:06:01;;;;;;;8.10;2.78;;;;;;;9.54;100.00;100461.72;682667;28;1195;-63
2022/09/17 01:06:44;;;;;;;6.93;3.00;;;;;;;9.50;100.00;100466.97;681288;28;1073;-63
2022/09/17 01:07:47;;;;;;;7.88;2.88;;;;;;;9.48;100.00;100463.47;681580;28;4792;-63
2022/09/17 01:08:17;;;;;;;7.30;2.80;;;;;;;9.33;100.00;100472.22;674997;29;1187;-64
2022/09/17 01:08:51;;;;;;;8.07;2.63;;;;;;;9.29;100.00;100462.66;680187;28;1057;-65
2022/09/17 01:09:31;;;;;;;8.40;2.80;;;;;;;9.33;100.00;100461.78;684440;28;1453;-64
2022/09/17 01:10:17;;;;;;;7.82;2.90;;;;;;;9.25;100.00;100468.75;678143;28;4568;-66
2022/09/17 01:10:46;;;;;;;8.50;3.10;;;;;;;9.24;100.00;100470.50;679476;28;1321;-64
2022/09/17 01:12:01;;;;;;;8.00;3.00;;;;;;;9.33;100.00;100461.78;679895;28;1114;-64
2022/09/17 01:13:03;;;;;;;9.88;3.42;;;;;;;9.40;100.00;100467.84;679331;29;1451;-65
2022/09/17 01:13:51;;;;;;;8.68;3.15;;;;;;;9.28;100.00;100467.00;672154;29;4788;-64
2022/09/17 01:14:38;;;;;;;7.63;3.22;;;;;;;9.39;100.00;100469.59;676768;29;1399;-65
2022/09/17 01:15:08;;;;;;;9.40;3.40;;;;;;;9.32;100.00;100470.50;674658;29;2613;-65
2022/09/17 01:15:37;;;;;;;10.63;3.25;;;;;;;9.26;100.00;100470.50;676730;29;1420;-64
2022/09/17 01:16:08;;;;;;;9.40;2.85;;;;;;;9.28;100.00;100469.63;677441;28;4733;-63
2022/09/17 01:16:31;;;;;;;9.45;3.35;;;;;;;9.31;100.00;100466.16;680385;28;1291;-64
2022/09/17 01:17:02;;;;;;;8.20;3.30;;;;;;;9.36;100.00;100472.22;681982;28;1240;-63
2022/09/17 01:17:41;;;;;;;10.20;3.30;;;;;;;9.34;100.00;100473.94;683836;28;1065;-64
2022/09/17 01:18:21;;;;;;;8.98;3.05;;;;;;;9.38;100.00;100467.84;680671;28;2553;-65
2022/09/17 01:19:02;;;;;;;10.43;3.70;;;;;;;9.34;100.00;100474.81;682763;28;1131;-63
2022/09/17 01:19:51;;;;;;;8.77;3.10;;;;;;;9.47;100.00;100473.06;684703;28;5254;-64
2022/09/17 01:20:48;;;;;;;9.70;3.53;;;;;;;9.52;100.00;100471.28;684190;28;1348;-64
2022/09/17 01:21:29;;;;;;;8.00;3.10;;;;;;;9.45;100.00;100474.78;684145;28;1189;-63
2022/09/17 01:22:06;;;;;;;8.30;3.30;;;;;;;9.35;100.00;100478.31;682105;28;4480;-63
2022/09/17 01:22:37;;;;;;;9.63;3.20;;;;;;;9.37;100.00;100472.22;681080;28;1314;-64
2022/09/17 01:23:10;;;;;;;9.85;3.55;;;;;;;9.32;100.00;100473.97;682146;28;1092;-64
2022/09/17 01:24:04;;;;;;;7.72;3.42;;;;;;;9.18;100.00;100484.44;680091;28;1421;-63
2022/09/17 01:24:43;;;;;;;10.00;3.58;;;;;;;9.21;100.00;100480.94;680802;28;1225;-64
2022/09/17 01:25:31;;;;;;;9.52;3.38;;;;;;;9.29;100.00;100478.31;676596;28;4920;-63
2022/09/17 01:26:17;;;;;;;10.45;4.18;;;;;;;9.21;100.00;100478.34;681455;28;1347;-64
2022/09/17 01:27:06;;;;;;;8.30;3.75;;;;;;;9.21;100.00;100486.16;682406;28;1125;-64
2022/09/17 01:27:29;;;;;;;6.25;3.13;;;;;;;9.26;100.00;100478.31;684445;28;1123;-63
2022/09/17 01:27:58;;;;;;;8.35;3.50;;;;;;;9.24;100.00;100485.28;684539;28;4620;-64
2022/09/17 01:28:45;;;;;;;7.70;3.63;;;;;;;9.31;100.00;100480.03;684991;28;986;-63
2022/09/17 01:29:26;;;;;;;9.02;3.85;;;;;;;9.29;100.00;100493.97;682193;28;1266;-63
2022/09/17 01:30:12;;;;;;;7.90;3.38;;;;;;;9.19;100.00;100490.50;681391;28;2798;-63
2022/09/17 01:30:56;;;;;;;8.50;3.70;;;;;;;9.14;100.00;100485.31;682396;28;1092;-65
2022/09/17 01:31:34;;;;;;;9.65;3.70;;;;;;;9.42;100.00;100477.41;681948;28;4817;-64
2022/09/17 01:32:04;;;;;;;9.25;4.00;;;;;;;9.38;100.00;100473.06;682291;28;1311;-63
2022/09/17 01:32:24;;;;;;;9.35;3.92;;;;;;;9.30;100.00;100472.22;680979;28;2471;-64
2022/09/17 01:33:05;;;;;;;9.38;3.88;;;;;;;9.26;100.00;100468.75;682135;28;1461;-64
2022/09/17 01:33:57;;;;;;;8.98;3.85;;;;;;;9.24;100.00;100470.50;679085;28;1106;-63
2022/09/17 01:34:33;;;;;;;11.00;4.30;;;;;;;9.22;100.00;100473.97;681967;28;5645;-63
2022/09/17 01:35:02;;;;;;;10.07;4.35;;;;;;;9.19;100.00;100467.91;680671;28;2334;-65
2022/09/17 01:35:48;;;;;;;9.23;4.35;;;;;;;9.27;100.00;100467.03;681963;28;1029;-64
2022/09/17 01:36:29;;;;;;;8.65;4.10;;;;;;;9.32;100.00;100468.75;682334;28;1128;-64
2022/09/17 01:36:59;;;;;;;11.25;4.22;;;;;;;9.32;100.00;100473.97;678320;28;4325;-64
2022/09/17 01:37:34;;;;;;;10.15;4.13;;;;;;;9.34;100.00;100466.97;679118;28;1590;-64
2022/09/17 01:38:03;;;;;;;11.40;4.50;;;;;;;9.40;100.00;100471.34;677237;28;1375;-63
2022/09/17 01:39:02;;;;;;;11.48;4.10;;;;;;;9.44;100.00;100469.56;680854;28;1189;-63
2022/09/17 01:39:47;;;;;;;10.05;4.60;;;;;;;9.43;100.00;100468.72;676932;29;1280;-62
2022/09/17 01:40:23;;;;;;;11.25;5.10;;;;;;;9.42;100.00;100464.38;673966;29;5154;-63
2022/09/17 01:40:54;;;;;;;9.80;4.70;;;;;;;9.45;100.00;100468.72;674158;29;1292;-62
2022/09/17 01:41:43;;;;;;;11.45;5.18;;;;;;;9.41;100.00;100465.22;679476;28;1430;-62
2022/09/17 01:42:13;;;;;;;10.98;5.32;;;;;;;9.31;100.00;100466.16;677101;28;1230;-63
2022/09/17 01:42:34;;;;;;;11.25;5.50;;;;;;;9.31;100.00;100463.53;681408;28;2377;-62
2022/09/17 01:43:07;;;;;;;11.47;4.97;;;;;;;9.43;100.00;100466.09;680838;28;4317;-62
2022/09/17 01:43:47;;;;;;;11.30;5.32;;;;;;;9.31;100.00;100472.22;680825;28;1270;-65
2022/09/17 01:44:34;;;;;;;10.27;5.22;;;;;;;9.22;100.00;100471.38;681806;28;1227;-62
2022/09/17 01:45:14;;;;;;;9.52;5.15;;;;;;;9.18;100.00;100475.75;679597;28;1431;-63
2022/09/17 01:45:46;;;;;;;11.00;5.05;;;;;;;9.12;100.00;100481.81;678564;29;1575;-63
2022/09/17 01:46:34;;;;;;;12.57;5.40;;;;;;;9.10;100.00;100475.75;677542;29;4757;-61
2022/09/17 01:47:03;;;;;;;10.88;5.20;;;;;;;9.34;100.00;100472.19;676749;29;1209;-61
2022/09/17 01:47:44;;;;;;;10.32;5.20;;;;;;;9.38;100.00;100470.47;677209;28;1125;-63
2022/09/17 01:48:15;;;;;;;9.73;5.05;;;;;;;9.32;100.00;100466.13;679940;28;2353;-63
2022/09/17 01:48:41;;;;;;;9.20;4.90;;;;;;;9.28;100.00;100473.97;677458;28;1136;-62
2022/09/17 01:49:05;;;;;;;9.52;4.65;;;;;;;9.26;100.00;100473.09;679778;28;4330;-61
2022/09/17 01:49:26;;;;;;;10.55;4.95;;;;;;;9.28;100.00;100473.97;682460;28;1025;-62
2022/09/17 01:49:52;;;;;;;10.38;5.25;;;;;;;9.44;100.00;100473.06;681556;28;1137;-61
2022/09/17 01:50:19;;;;;;;10.23;4.82;;;;;;;9.45;100.00;100472.19;679382;28;1065;-62
2022/09/17 01:50:47;;;;;;;9.63;4.88;;;;;;;9.40;100.00;100478.28;677500;28;2649;-63
2022/09/17 01:51:11;;;;;;;9.40;4.80;;;;;;;9.41;100.00;100474.81;679272;28;1050;-62
2022/09/17 01:51:39;;;;;;;11.15;5.20;;;;;;;9.39;100.00;100482.66;680430;28;1388;-61
2022/09/17 01:52:00;;;;;;;10.00;5.20;;;;;;;9.34;100.00;100477.41;680762;28;4527;-62
2022/09/17 01:52:23;;;;;;;11.52;5.65;;;;;;;9.29;100.00;100478.31;682075;28;1000;-61
2022/09/17 01:52:47;;;;;;;11.95;5.20;;;;;;;9.30;100.00;100477.44;680783;28;1023;-66
2022/09/17 01:53:10;;;;;;;10.43;5.20;;;;;;;9.46;100.00;100479.13;681166;28;952;-62
2022/09/17 01:53:40;;;;;;;9.43;5.10;;;;;;;9.46;100.00;100479.13;682022;28;1422;-62
2022/09/17 01:54:11;;;;;;;11.43;5.47;;;;;;;9.49;100.00;100479.13;681878;28;3793;-61
2022/09/17 01:54:55;;;;;;;11.88;5.22;;;;;;;9.32;100.00;100473.97;680916;28;2617;-63
2022/09/17 01:55:18;;;;;;;11.35;5.20;;;;;;;9.23;100.00;100473.13;681252;28;4854;-62
2022/09/17 01:55:42;;;;;;;11.25;5.15;;;;;;;9.14;100.00;100474.88;680729;28;1081;-62
2022/09/17 01:56:04;;;;;;;12.93;5.60;;;;;;;9.10;100.00;100483.56;678499;28;1275;-62
2022/09/17 01:56:29;;;;;;;12.15;5.43;;;;;;;9.07;100.00;100478.38;679635;28;1156;-62
2022/09/17 01:57:03;;;;;;;10.07;4.97;;;;;;;9.31;100.00;100476.56;679934;28;1249;-63
2022/09/17 01:57:34;;;;;;;10.10;5.38;;;;;;;9.41;100.00;100473.06;681315;28;2456;-60
2022/09/17 01:58:03;;;;;;;11.02;5.60;;;;;;;9.45;100.00;100474.78;683039;28;4344;-60
2022/09/17 01:58:31;;;;;;;13.52;6.10;;;;;;;9.37;100.00;100473.94;682597;28;1128;-62
2022/09/17 01:59:01;;;;;;;10.93;5.93;;;;;;;9.28;100.00;100473.97;681313;28;1361;-60
2022/09/17 01:59:28;;;;;;;11.43;5.47;;;;;;;9.32;100.00;100473.09;679756;28;1163;-62
2022/09/17 02:00:03;;;;;;;12.60;5.60;;;;;;;9.35;100.00;100470.47;679547;28;2430;-61
2022/09/17 02:00:32;;;;;;;12.23;6.18;;;;;;;9.33;100.00;100475.72;681146;28;1116;-61
2022/09/17 02:00:59;;;;;;;10.98;5.75;;;;;;;9.34;100.00;100471.34;681624;28;4556;-61
2022/09/17 02:01:23;;;;;;;12.80;5.25;;;;;;;9.30;100.00;100477.44;681734;28;1377;-61
2022/09/17 02:01:47;;;;;;;13.80;5.63;;;;;;;9.23;100.00;100481.81;679053;29;1180;-62
2022/09/17 02:02:14;;;;;;;14.07;5.70;;;;;;;9.14;100.00;100477.47;679936;28;1064;-60
2022/09/17 02:03:02;;;;;;;10.82;4.90;;;;;;;9.12;100.00;100474.00;678595;29;2574;-60
2022/09/17 02:03:31;;;;;;;11.88;5.38;;;;;;;9.17;100.00;100472.25;681361;28;1089;-61
2022/09/17 02:04:23;;;;;;;11.90;5.70;;;;;;;9.18;100.00;100470.53;683629;28;4423;-62
2022/09/17 02:04:52;;;;;;;11.93;5.78;;;;;;;9.18;100.00;100481.81;685051;28;1178;-61
2022/09/17 02:05:19;;;;;;;10.60;5.13;;;;;;;9.22;100.00;100481.81;684062;28;2264;-62
2022/09/17 02:05:51;;;;;;;11.93;5.35;;;;;;;9.19;100.00;100480.97;682778;28;1433;-62
2022/09/17 02:06:16;;;;;;;12.00;5.25;;;;;;;9.16;100.00;100478.34;683183;28;1033;-62
2022/09/17 02:06:43;;;;;;;13.15;5.50;;;;;;;9.23;100.00;100473.97;682468;28;1199;-61
2022/09/17 02:07:19;;;;;;;11.50;5.40;;;;;;;9.11;100.00;100474.88;683312;28;4306;-62
2022/09/17 02:07:43;;;;;;;11.20;4.82;;;;;;;9.07;100.00;100478.38;681251;28;1035;-60
2022/09/17 02:08:24;;;;;;;10.13;4.90;;;;;;;9.06;100.00;100478.38;679785;28;1051;-61
2022/09/17 02:08:53;;;;;;;10.10;4.60;;;;;;;9.06;100.00;100479.22;679433;28;1042;-61
2022/09/17 02:09:18;;;;;;;12.20;4.80;;;;;;;9.01;100.00;100478.34;679175;28;1375;-61
2022/09/17 02:09:49;;;;;;;11.73;5.00;;;;;;;9.00;100.00;100480.13;681594;28;1354;-60
2022/09/17 02:10:16;;;;;;;9.32;5.13;;;;;;;8.99;100.00;100474.91;681063;28;4895;-62